sensor_id;sensor_type;location;lat;lon;timestamp;P1;durP1;ratioP1;P2;durP2;ratioP2
8885;SDS011;4479;51.162;13.906;2023-05-07T00:00:38;9.53;;;7.70;;
8885;SDS011;4479;51.162;13.906;2023-05-07T00:10:42;9.33;;;7.53;;
8885;SDS011;4479;51.162;13.906;2023-05-07T00:20:46;10.43;;;7.57;;
8885;SDS011;4479;51.162;13.906;2023-05-07T00:30:48;9.93;;;7.60;;
8885;SDS011;4479;51.162;13.906;2023-05-07T00:40:52;8.70;;;7.60;;
8885;SDS011;4479;51.162;13.906;2023-05-07T00:50:54;9.27;;;7.60;;
8885;SDS011;4479;51.162;13.906;2023-05-07T01:00:58;10.27;;;8.03;;
8885;SDS011;4479;51.162;13.906;2023-05-07T01:11:01;10.30;;;7.60;;
8885;SDS011;4479;51.162;13.906;2023-05-07T01:21:05;8.80;;;7.00;;
8885;SDS011;4479;51.162;13.906;2023-05-07T01:31:09;9.80;;;7.47;;
8885;SDS011;4479;51.162;13.906;2023-05-07T01:41:12;10.80;;;7.87;;
8885;SDS011;4479;51.162;13.906;2023-05-07T01:51:20;9.80;;;6.73;;
8885;SDS011;4479;51.162;13.906;2023-05-07T02:01:22;8.03;;;6.83;;
8885;SDS011;4479;51.162;13.906;2023-05-07T02:11:27;9.57;;;7.33;;
8885;SDS011;4479;51.162;13.906;2023-05-07T02:21:30;8.83;;;7.13;;
8885;SDS011;4479;51.162;13.906;2023-05-07T02:31:34;7.83;;;6.67;;
8885;SDS011;4479;51.162;13.906;2023-05-07T02:41:37;10.40;;;7.20;;
8885;SDS011;4479;51.162;13.906;2023-05-07T02:51:41;9.57;;;6.60;;
8885;SDS011;4479;51.162;13.906;2023-05-07T03:01:50;9.33;;;6.93;;
8885;SDS011;4479;51.162;13.906;2023-05-07T03:11:58;9.30;;;7.20;;
8885;SDS011;4479;51.162;13.906;2023-05-07T03:22:02;9.83;;;6.97;;
8885;SDS011;4479;51.162;13.906;2023-05-07T03:32:07;10.10;;;7.83;;
8885;SDS011;4479;51.162;13.906;2023-05-07T03:42:11;10.03;;;7.30;;
8885;SDS011;4479;51.162;13.906;2023-05-07T03:52:15;12.30;;;7.50;;
8885;SDS011;4479;51.162;13.906;2023-05-07T04:02:22;10.33;;;7.13;;
8885;SDS011;4479;51.162;13.906;2023-05-07T04:12:27;12.20;;;7.40;;
8885;SDS011;4479;51.162;13.906;2023-05-07T04:22:30;10.83;;;7.80;;
8885;SDS011;4479;51.162;13.906;2023-05-07T04:32:35;11.73;;;7.67;;
8885;SDS011;4479;51.162;13.906;2023-05-07T04:42:38;10.33;;;7.50;;
8885;SDS011;4479;51.162;13.906;2023-05-07T04:52:44;11.07;;;7.53;;
8885;SDS011;4479;51.162;13.906;2023-05-07T05:02:49;11.27;;;7.13;;
8885;SDS011;4479;51.162;13.906;2023-05-07T05:12:56;9.90;;;7.10;;
8885;SDS011;4479;51.162;13.906;2023-05-07T05:23:00;9.33;;;7.00;;
8885;SDS011;4479;51.162;13.906;2023-05-07T05:33:05;9.17;;;6.10;;
8885;SDS011;4479;51.162;13.906;2023-05-07T05:43:08;7.80;;;5.87;;
8885;SDS011;4479;51.162;13.906;2023-05-07T05:53:13;8.13;;;6.43;;
8885;SDS011;4479;51.162;13.906;2023-05-07T06:03:17;8.17;;;5.93;;
8885;SDS011;4479;51.162;13.906;2023-05-07T06:24:19;7.13;;;5.27;;
8885;SDS011;4479;51.162;13.906;2023-05-07T06:34:22;4.87;;;4.20;;
8885;SDS011;4479;51.162;13.906;2023-05-07T06:44:27;3.80;;;3.40;;
8885;SDS011;4479;51.162;13.906;2023-05-07T06:54:39;3.00;;;2.70;;
8885;SDS011;4479;51.162;13.906;2023-05-07T07:04:44;3.90;;;2.70;;
8885;SDS011;4479;51.162;13.906;2023-05-07T07:14:51;3.57;;;3.17;;
8885;SDS011;4479;51.162;13.906;2023-05-07T07:24:57;4.73;;;3.50;;
8885;SDS011;4479;51.162;13.906;2023-05-07T07:35:05;4.00;;;3.50;;
8885;SDS011;4479;51.162;13.906;2023-05-07T07:55:38;4.40;;;3.60;;
8885;SDS011;4479;51.162;13.906;2023-05-07T08:05:43;5.67;;;5.17;;
8885;SDS011;4479;51.162;13.906;2023-05-07T08:15:45;6.93;;;6.00;;
8885;SDS011;4479;51.162;13.906;2023-05-07T08:25:50;5.60;;;4.80;;
8885;SDS011;4479;51.162;13.906;2023-05-07T08:35:53;6.40;;;5.70;;
8885;SDS011;4479;51.162;13.906;2023-05-07T08:45:58;5.90;;;4.90;;
8885;SDS011;4479;51.162;13.906;2023-05-07T08:56:06;6.60;;;5.90;;
8885;SDS011;4479;51.162;13.906;2023-05-07T09:06:11;5.97;;;5.37;;
8885;SDS011;4479;51.162;13.906;2023-05-07T09:16:15;5.83;;;5.27;;
8885;SDS011;4479;51.162;13.906;2023-05-07T09:26:24;6.77;;;6.07;;
8885;SDS011;4479;51.162;13.906;2023-05-07T09:36:35;5.80;;;5.20;;
8885;SDS011;4479;51.162;13.906;2023-05-07T09:46:41;6.90;;;6.13;;
8885;SDS011;4479;51.162;13.906;2023-05-07T09:56:53;5.30;;;4.80;;
8885;SDS011;4479;51.162;13.906;2023-05-07T10:07:00;6.20;;;5.60;;
8885;SDS011;4479;51.162;13.906;2023-05-07T10:17:08;8.73;;;6.60;;
8885;SDS011;4479;51.162;13.906;2023-05-07T10:27:14;6.63;;;5.93;;
8885;SDS011;4479;51.162;13.906;2023-05-07T10:37:22;9.43;;;8.07;;
8885;SDS011;4479;51.162;13.906;2023-05-07T10:47:28;24.57;;;17.93;;
8885;SDS011;4479;51.162;13.906;2023-05-07T10:57:34;16.47;;;13.43;;
8885;SDS011;4479;51.162;13.906;2023-05-07T11:07:53;31.83;;;21.33;;
8885;SDS011;4479;51.162;13.906;2023-05-07T11:17:58;12.10;;;10.20;;
8885;SDS011;4479;51.162;13.906;2023-05-07T11:28:16;16.40;;;14.23;;
8885;SDS011;4479;51.162;13.906;2023-05-07T11:38:27;10.70;;;9.60;;
8885;SDS011;4479;51.162;13.906;2023-05-07T11:48:33;9.33;;;8.37;;
8885;SDS011;4479;51.162;13.906;2023-05-07T11:58:36;12.63;;;10.00;;
8885;SDS011;4479;51.162;13.906;2023-05-07T12:08:42;8.57;;;7.20;;
8885;SDS011;4479;51.162;13.906;2023-05-07T12:18:46;9.83;;;8.83;;
8885;SDS011;4479;51.162;13.906;2023-05-07T12:28:50;6.20;;;5.60;;
8885;SDS011;4479;51.162;13.906;2023-05-07T12:38:52;6.83;;;5.67;;
8885;SDS011;4479;51.162;13.906;2023-05-07T12:48:58;5.00;;;4.50;;
8885;SDS011;4479;51.162;13.906;2023-05-07T12:59:01;5.20;;;4.43;;
8885;SDS011;4479;51.162;13.906;2023-05-07T13:09:05;4.87;;;4.17;;
8885;SDS011;4479;51.162;13.906;2023-05-07T13:19:08;6.20;;;4.97;;
8885;SDS011;4479;51.162;13.906;2023-05-07T13:29:13;5.43;;;4.93;;
8885;SDS011;4479;51.162;13.906;2023-05-07T13:39:20;5.00;;;4.50;;
8885;SDS011;4479;51.162;13.906;2023-05-07T13:49:28;4.70;;;4.30;;
8885;SDS011;4479;51.162;13.906;2023-05-07T13:59:40;6.00;;;4.53;;
8885;SDS011;4479;51.162;13.906;2023-05-07T14:09:45;5.93;;;5.30;;
8885;SDS011;4479;51.162;13.906;2023-05-07T14:19:47;4.70;;;4.30;;
8885;SDS011;4479;51.162;13.906;2023-05-07T14:29:52;5.90;;;5.40;;
8885;SDS011;4479;51.162;13.906;2023-05-07T14:39:55;7.00;;;5.93;;
8885;SDS011;4479;51.162;13.906;2023-05-07T14:50:02;4.77;;;4.37;;
8885;SDS011;4479;51.162;13.906;2023-05-07T15:00:08;7.60;;;6.90;;
8885;SDS011;4479;51.162;13.906;2023-05-07T15:10:14;7.13;;;6.43;;
8885;SDS011;4479;51.162;13.906;2023-05-07T15:20:27;7.40;;;6.60;;
8885;SDS011;4479;51.162;13.906;2023-05-07T15:30:59;8.57;;;6.40;;
8885;SDS011;4479;51.162;13.906;2023-05-07T15:41:07;6.70;;;6.00;;
8885;SDS011;4479;51.162;13.906;2023-05-07T15:51:18;6.53;;;5.93;;
8885;SDS011;4479;51.162;13.906;2023-05-07T16:01:21;7.77;;;7.07;;
8885;SDS011;4479;51.162;13.906;2023-05-07T16:11:26;7.13;;;5.87;;
8885;SDS011;4479;51.162;13.906;2023-05-07T16:21:32;6.07;;;5.47;;
8885;SDS011;4479;51.162;13.906;2023-05-07T16:31:42;8.10;;;6.30;;
8885;SDS011;4479;51.162;13.906;2023-05-07T16:41:45;6.60;;;5.97;;
8885;SDS011;4479;51.162;13.906;2023-05-07T16:51:53;6.83;;;5.80;;
8885;SDS011;4479;51.162;13.906;2023-05-07T17:01:56;5.37;;;4.87;;
8885;SDS011;4479;51.162;13.906;2023-05-07T17:12:00;4.00;;;3.60;;
8885;SDS011;4479;51.162;13.906;2023-05-07T17:22:03;5.10;;;4.10;;
8885;SDS011;4479;51.162;13.906;2023-05-07T17:32:07;5.17;;;4.67;;
8885;SDS011;4479;51.162;13.906;2023-05-07T17:42:09;5.40;;;4.60;;
8885;SDS011;4479;51.162;13.906;2023-05-07T17:52:14;5.20;;;4.70;;
8885;SDS011;4479;51.162;13.906;2023-05-07T18:02:16;5.23;;;4.73;;
8885;SDS011;4479;51.162;13.906;2023-05-07T18:12:21;5.20;;;4.70;;
8885;SDS011;4479;51.162;13.906;2023-05-07T18:22:24;5.57;;;4.40;;
8885;SDS011;4479;51.162;13.906;2023-05-07T18:32:27;6.53;;;5.30;;
8885;SDS011;4479;51.162;13.906;2023-05-07T20:40:09;3.97;;;3.40;;
8885;SDS011;4479;51.162;13.906;2023-05-07T21:11:39;4.20;;;3.80;;
8885;SDS011;4479;51.162;13.906;2023-05-07T21:22:46;4.60;;;3.80;;
8885;SDS011;4479;51.162;13.906;2023-05-07T21:57:06;3.90;;;3.50;;
8885;SDS011;4479;51.162;13.906;2023-05-07T22:18:21;6.30;;;3.73;;
8885;SDS011;4479;51.162;13.906;2023-05-07T22:28:26;4.50;;;3.60;;
8885;SDS011;4479;51.162;13.906;2023-05-07T22:38:33;4.30;;;3.70;;
8885;SDS011;4479;51.162;13.906;2023-05-07T22:48:53;5.07;;;4.13;;
8885;SDS011;4479;51.162;13.906;2023-05-07T22:59:08;4.83;;;4.13;;
8885;SDS011;4479;51.162;13.906;2023-05-07T23:09:28;4.40;;;3.93;;
8885;SDS011;4479;51.162;13.906;2023-05-07T23:19:40;5.07;;;4.27;;
8885;SDS011;4479;51.162;13.906;2023-05-07T23:30:00;6.07;;;4.60;;
8885;SDS011;4479;51.162;13.906;2023-05-07T23:40:29;5.70;;;4.50;;
8885;SDS011;4479;51.162;13.906;2023-05-07T23:50:49;5.83;;;4.40;;
